Aérodrome :
LOGIN :

S'inscrire | Disclaimer

   EN    FR    IT 

 










Légende :    VFR   VFR Marginal   IFR   IFR Intensif   IFR Très Intensif
Visi : 
Plafond : 
>= 8 km
>= 3000ft
5 à 8 km
1000 à 3000 ft
1500m à 5 km
500 à 1000 ft
800 à 1500m
200 à 500 ft
< 800m
< 200 ft
Symboles :   Orages  Brouillard  Fortes neiges  Fortes précipitations  Vent > 20 kt
SIGMETs :   Divers  Orages  Givrage  Turbulence  Onde Orograph.  Cendres Volcan.






- Altitude de l'aérodrome : 45 ft
- Code IATA : CEG


EGNR - Hawarden Chester

DERNIER METAR :
  • 181750Z 29004KT 260V360 CAVOK 05/02 Q1033

METARs EXPIRÉS :
  • 181720Z 30004KT 250V350 9999 FEW040 06/02 Q1033
  • 181650Z 29004KT 240V320 9999 FEW040 06/02 Q1032
  • 181620Z 29005KT 250V320 9999 FEW040 06/02 Q1031
  • 181550Z 29005KT 250V320 9999 FEW030 06/02 Q1031

TAF TAF EGNR
Valide du 18 à 15h jusqu'au 18 à 19h UTC


181357Z 1815/1819 30008KT 9999 FEW030



MET'MAP, la Météo Aéronautique d'un coup d'oeil ! - Copyright ORBIFLY Décembre 2007 - Disclaimer

ORBIFLY MET'MAP TEAM :

Programmation & Développement : Alexandra Zaïnal
Sur une idée originale de : Baudouin d'Aumeries
Assistance à la programmation : Marc-Olivier Méhu
Soutien technique & logistique : Manuel Goepfert

Contact : metmap@orbifly.com




SOURCES & CREDITS :

   NOAA